Time;durP1;ratioP1;P1;durP2;ratioP2;P2;SDS_P1;SDS_P2;PMS_P1;PMS_P2;Temp;Humidity;BMP_temperature;BMP_pressure;BME280_temperature;BME280_humidity;BME280_pressure;Samples;Min_cycle;Max_cycle;Signal;HPM_P1;HPM_P2
2021/12/24 00:00:45;;;;;;;31.40;18.47;;;6.90;99.90;;;;;;5056446;28;20183;-79
2021/12/24 00:03:11;;;;;;;31.17;18.33;;;6.90;99.90;;;;;;5057728;28;20317;-80
2021/12/24 00:05:38;;;;;;;37.60;20.43;;;6.90;99.90;;;;;;5060206;28;20249;-80
2021/12/24 00:08:04;;;;;;;41.83;22.73;;;6.90;99.90;;;;;;5056790;28;20183;-79
2021/12/24 00:10:32;;;;;;;43.53;23.67;;;6.90;99.90;;;;;;5057789;28;20178;-80
2021/12/24 00:13:03;;;;;;;50.20;24.67;;;7.00;99.90;;;;;;5056426;28;20206;-80
2021/12/24 00:18:08;;;;;;;53.27;27.27;;;7.00;99.90;;;;;;5058713;28;20185;-80
2021/12/24 00:35:08;;;;;;;65.27;30.27;;;7.00;99.90;;;;;;5058901;28;20186;-79
2021/12/24 00:36:41;;;;;;;61.10;30.97;;;7.10;99.90;;;;;;5057589;28;20252;-79
2021/12/24 00:39:07;;;;;;;68.00;33.23;;;7.10;99.90;;;;;;5057068;28;20174;-80
2021/12/24 00:41:32;;;;;;;68.40;31.57;;;7.10;99.90;;;;;;5056509;28;20217;-80
2021/12/24 00:43:59;;;;;;;63.47;29.93;;;7.10;99.90;;;;;;5056961;28;20266;-79
2021/12/24 00:46:25;;;;;;;63.63;30.90;;;7.10;99.90;;;;;;5055518;28;20189;-79
2021/12/24 00:48:53;;;;;;;62.27;31.10;;;7.10;99.90;;;;;;5056821;28;20576;-80
2021/12/24 00:56:47;;;;;;;48.33;26.27;;;7.20;99.90;;;;;;5057195;28;20224;-79
2021/12/24 00:59:13;;;;;;;52.93;27.30;;;7.20;99.90;;;;;;5057397;28;20190;-79
2021/12/24 01:01:39;;;;;;;53.90;27.17;;;7.20;99.90;;;;;;5056832;28;20265;-79
2021/12/24 01:04:05;;;;;;;59.13;28.53;;;7.20;99.90;;;;;;5055498;28;20200;-79
2021/12/24 01:06:30;;;;;;;55.70;26.10;;;7.20;99.90;;;;;;5057137;28;20166;-79
2021/12/24 01:08:56;;;;;;;53.87;26.83;;;7.30;99.90;;;;;;5054932;28;20182;-80
2021/12/24 01:11:22;;;;;;;57.10;27.77;;;7.30;99.90;;;;;;5055419;28;20273;-79
2021/12/24 01:13:48;;;;;;;46.60;25.50;;;7.30;99.90;;;;;;5056114;28;20285;-79
2021/12/24 01:19:14;;;;;;;49.97;26.33;;;7.30;99.90;;;;;;5052338;28;20224;-80
2021/12/24 01:24:11;;;;;;;47.50;26.43;;;7.30;99.90;;;;;;5059155;28;20246;-80
2021/12/24 01:26:50;;;;;;;45.87;22.43;;;7.30;99.90;;;;;;5057821;28;20616;-79
2021/12/24 01:37:56;;;;;;;42.07;21.87;;;7.40;99.90;;;;;;5048444;28;20264;-80
2021/12/24 01:42:51;;;;;;;42.30;21.80;;;7.40;99.90;;;;;;5058849;28;20210;-79
2021/12/24 01:45:20;;;;;;;41.17;21.57;;;7.40;99.90;;;;;;5057926;28;20181;-80
2021/12/24 01:47:46;;;;;;;43.17;21.93;;;7.40;99.90;;;;;;5058402;28;20178;-79
2021/12/24 01:50:13;;;;;;;36.63;19.93;;;7.40;99.90;;;;;;5058641;28;20198;-80
2021/12/24 01:52:39;;;;;;;32.07;20.10;;;7.40;99.90;;;;;;5058289;28;20608;-80
2021/12/24 01:55:06;;;;;;;36.67;19.30;;;7.40;99.90;;;;;;5058533;28;20171;-80
2021/12/24 01:57:32;;;;;;;34.13;18.50;;;7.40;99.90;;;;;;5058375;28;20187;-80
2021/12/24 01:59:59;;;;;;;37.80;20.03;;;7.40;99.90;;;;;;5058498;28;20182;-80
2021/12/24 02:02:27;;;;;;;35.63;18.83;;;7.40;99.90;;;;;;5058363;28;20201;-80
2021/12/24 02:04:52;;;;;;;32.43;17.90;;;7.40;99.90;;;;;;5059105;28;20570;-80
2021/12/24 02:07:18;;;;;;;32.57;18.63;;;7.40;99.90;;;;;;5058004;28;20175;-80
2021/12/24 02:09:44;;;;;;;31.27;19.73;;;7.40;99.90;;;;;;5059277;28;20175;-80
2021/12/24 02:12:11;;;;;;;35.47;19.50;;;7.40;99.90;;;;;;5057780;28;20193;-80
2021/12/24 02:14:39;;;;;;;37.20;20.20;;;7.40;99.90;;;;;;5058055;28;20203;-80
2021/12/24 02:17:30;;;;;;;32.40;20.43;;;7.40;99.90;;;;;;5058517;28;20174;-80
2021/12/24 02:28:24;;;;;;;37.50;21.43;;;7.50;99.90;;;;;;5059716;28;20166;-79
2021/12/24 02:30:50;;;;;;;37.70;20.03;;;7.50;99.90;;;;;;5059288;28;20212;-79
2021/12/24 02:33:16;;;;;;;41.80;22.43;;;7.50;99.90;;;;;;5060325;28;20222;-80
2021/12/24 02:35:42;;;;;;;41.37;21.93;;;7.50;99.90;;;;;;5056250;28;20240;-80
2021/12/24 02:38:08;;;;;;;46.23;23.03;;;7.50;99.90;;;;;;5056072;28;20650;-80
2021/12/24 02:40:34;;;;;;;48.60;23.23;;;7.60;99.90;;;;;;5058049;28;20245;-79
2021/12/24 02:43:01;;;;;;;42.30;22.23;;;7.50;99.90;;;;;;5056878;28;20202;-79
2021/12/24 02:45:31;;;;;;;44.37;23.30;;;7.50;99.90;;;;;;5055763;28;20257;-79
2021/12/24 02:56:00;;;;;;;59.13;25.20;;;7.60;99.90;;;;;;5058454;28;20236;-79
2021/12/24 02:58:26;;;;;;;46.37;24.07;;;7.60;99.90;;;;;;5057232;28;20210;-80
2021/12/24 03:00:52;;;;;;;52.93;23.97;;;7.60;99.90;;;;;;5056732;28;20565;-80
2021/12/24 03:03:18;;;;;;;57.10;27.33;;;7.60;99.90;;;;;;5056839;28;20704;-80
2021/12/24 03:05:44;;;;;;;52.77;26.17;;;7.70;99.90;;;;;;5057260;28;20174;-79
2021/12/24 03:08:10;;;;;;;48.63;25.50;;;7.70;99.90;;;;;;5057274;28;20178;-81
2021/12/24 03:10:36;;;;;;;53.77;25.43;;;7.70;99.90;;;;;;5059272;28;20538;-79
2021/12/24 03:13:03;;;;;;;56.13;26.67;;;7.70;99.90;;;;;;5057420;28;20670;-79
2021/12/24 03:15:29;;;;;;;57.87;26.13;;;7.70;99.90;;;;;;5058143;28;20206;-79
2021/12/24 03:17:58;;;;;;;64.60;28.67;;;7.70;99.90;;;;;;5057074;28;20227;-79
2021/12/24 03:20:25;;;;;;;62.17;27.47;;;7.80;99.90;;;;;;5056971;28;20189;-81
2021/12/24 03:25:32;;;;;;;68.03;29.03;;;7.80;99.90;;;;;;5057989;28;20178;-80
2021/12/24 03:27:58;;;;;;;67.67;29.57;;;7.80;99.90;;;;;;5057398;28;20174;-80
2021/12/24 03:30:25;;;;;;;68.23;31.27;;;7.80;99.90;;;;;;5058637;28;20181;-79
2021/12/24 03:32:50;;;;;;;59.77;29.10;;;7.80;99.90;;;;;;5059037;28;20182;-79
2021/12/24 03:35:16;;;;;;;70.63;31.03;;;7.80;99.90;;;;;;5059487;28;20167;-80
2021/12/24 03:37:42;;;;;;;66.43;29.90;;;7.80;99.90;;;;;;5056981;28;20235;-80
2021/12/24 03:40:08;;;;;;;64.40;27.07;;;7.80;99.90;;;;;;5057693;28;20671;-79
2021/12/24 03:42:37;;;;;;;66.87;29.70;;;7.80;99.90;;;;;;5058708;28;20253;-78
2021/12/24 03:45:22;;;;;;;64.63;29.37;;;7.80;99.90;;;;;;5057564;28;20599;-80
2021/12/24 03:47:54;;;;;;;56.43;27.77;;;7.80;99.90;;;;;;5057120;28;20174;-79
2021/12/24 03:50:20;;;;;;;55.43;27.17;;;7.80;99.90;;;;;;5056292;28;20230;-79
2021/12/24 03:54:55;;;;;;;60.60;27.67;;;7.80;99.90;;;;;;5053729;28;20664;-78
2021/12/24 03:55:49;;;;;;;55.30;27.23;;;7.70;99.90;;;;;;5054844;28;20189;-78
2021/12/24 03:58:15;;;;;;;60.57;26.43;;;7.80;99.90;;;;;;5053757;28;20179;-78
2021/12/24 04:00:41;;;;;;;55.03;27.10;;;7.70;99.90;;;;;;5053749;28;20643;-78
2021/12/24 04:03:06;;;;;;;51.97;26.93;;;7.70;99.90;;;;;;5053149;28;20288;-78
2021/12/24 04:05:32;;;;;;;53.73;26.00;;;7.70;99.90;;;;;;5053345;28;20252;-78
2021/12/24 04:07:58;;;;;;;48.20;24.57;;;7.80;99.90;;;;;;5054460;28;20643;-78
2021/12/24 04:10:44;;;;;;;54.93;25.23;;;7.80;99.90;;;;;;5053212;28;20701;-78
2021/12/24 04:13:11;;;;;;;54.83;25.33;;;7.80;99.90;;;;;;5053988;28;20695;-78
2021/12/24 04:15:38;;;;;;;53.13;26.90;;;7.80;99.90;;;;;;5054455;28;20200;-78
2021/12/24 04:18:20;;;;;;;54.47;25.13;;;7.80;99.90;;;;;;5054605;28;20175;-78
2021/12/24 04:26:14;;;;;;;49.30;26.13;;;7.90;99.90;;;;;;5054691;28;20307;-78
2021/12/24 04:28:40;;;;;;;56.73;25.93;;;7.90;99.90;;;;;;5053065;28;20204;-78
2021/12/24 04:31:06;;;;;;;59.60;27.97;;;7.90;99.90;;;;;;5054237;28;20253;-78
2021/12/24 04:33:38;;;;;;;66.30;29.80;;;7.90;99.90;;;;;;5054732;28;20266;-78
2021/12/24 05:03:12;;;;;;;69.70;32.40;;;8.00;99.90;;;;;;5056141;28;20264;-78
2021/12/24 05:10:37;;;;;;;79.30;32.77;;;7.90;99.90;;;;;;5055935;28;20261;-79
2021/12/24 05:13:05;;;;;;;78.67;34.40;;;8.00;99.90;;;;;;5055692;28;20186;-79
2021/12/24 05:15:31;;;;;;;73.93;34.20;;;8.00;99.90;;;;;;5055214;28;20588;-79
2021/12/24 05:23:07;;;;;;;77.83;34.67;;;8.00;99.90;;;;;;5055000;28;20573;-79
2021/12/24 05:25:37;;;;;;;73.40;33.10;;;8.00;99.90;;;;;;5054179;28;20190;-78
2021/12/24 05:28:03;;;;;;;74.23;34.17;;;8.00;99.90;;;;;;5052833;28;20180;-78
2021/12/24 05:30:29;;;;;;;85.27;33.83;;;8.00;99.90;;;;;;5054185;28;20644;-78
2021/12/24 05:32:54;;;;;;;76.17;34.43;;;8.00;99.90;;;;;;5053055;28;20202;-78
2021/12/24 05:35:20;;;;;;;84.90;34.70;;;8.00;99.90;;;;;;5053336;28;20236;-79
2021/12/24 05:37:46;;;;;;;74.67;33.90;;;8.10;99.90;;;;;;5054851;28;20178;-78
2021/12/24 05:40:12;;;;;;;71.37;33.77;;;8.10;99.90;;;;;;5053150;28;20183;-78
2021/12/24 05:42:37;;;;;;;71.77;33.00;;;8.10;99.90;;;;;;5053327;28;20213;-79
2021/12/24 05:45:06;;;;;;;74.97;33.17;;;8.10;99.90;;;;;;5053057;28;20177;-78
2021/12/24 05:47:32;;;;;;;72.63;32.37;;;8.10;99.90;;;;;;5069589;28;20555;-78
2021/12/24 05:49:59;;;;;;;67.03;31.93;;;8.10;99.90;;;;;;5052668;28;20228;-78
2021/12/24 05:52:25;;;;;;;68.37;32.80;;;8.00;99.90;;;;;;5052755;28;20311;-79
2021/12/24 05:54:50;;;;;;;65.80;32.63;;;8.10;99.90;;;;;;5052369;28;20199;-79
2021/12/24 05:57:16;;;;;;;73.57;35.40;;;8.00;99.90;;;;;;5052418;28;20182;-79
2021/12/24 05:59:42;;;;;;;70.10;33.33;;;8.10;99.90;;;;;;5052701;28;20186;-78
2021/12/24 06:02:08;;;;;;;73.77;33.90;;;8.10;99.90;;;;;;5052318;28;20210;-78
2021/12/24 06:04:35;;;;;;;66.90;34.67;;;8.00;99.90;;;;;;5056834;28;20667;-78
2021/12/24 06:07:00;;;;;;;68.13;32.17;;;8.00;99.90;;;;;;5055970;28;20182;-78
2021/12/24 06:09:26;;;;;;;73.97;36.10;;;8.00;99.90;;;;;;5056661;28;20265;-78
2021/12/24 06:11:52;;;;;;;64.47;32.37;;;8.00;99.90;;;;;;5055715;28;20639;-78
2021/12/24 06:14:19;;;;;;;65.70;31.57;;;8.00;99.90;;;;;;5056732;28;20191;-78
2021/12/24 06:16:51;;;;;;;65.93;32.10;;;8.10;99.90;;;;;;5055510;28;20639;-78
2021/12/24 06:19:18;;;;;;;62.53;33.57;;;8.00;99.90;;;;;;5055616;28;20166;-78
2021/12/24 06:21:44;;;;;;;64.80;33.53;;;8.00;99.90;;;;;;5056675;28;20262;-78
2021/12/24 06:24:12;;;;;;;82.93;34.70;;;8.00;99.90;;;;;;5055039;28;20238;-78
2021/12/24 06:26:39;;;;;;;68.57;31.53;;;8.00;99.90;;;;;;5056820;28;20202;-78
2021/12/24 06:29:05;;;;;;;62.53;32.00;;;8.00;99.90;;;;;;5056533;28;20171;-78
2021/12/24 06:31:31;;;;;;;65.63;32.77;;;8.00;99.90;;;;;;5055340;28;20618;-78
2021/12/24 06:33:57;;;;;;;58.60;33.37;;;8.00;99.90;;;;;;5055197;28;20213;-78
2021/12/24 06:36:23;;;;;;;60.43;31.87;;;8.10;99.90;;;;;;5054837;28;20236;-78
2021/12/24 06:38:49;;;;;;;66.40;30.33;;;8.10;99.90;;;;;;5055059;28;20186;-78
2021/12/24 06:41:14;;;;;;;57.37;29.73;;;8.10;99.90;;;;;;5056684;28;20696;-78
2021/12/24 06:43:40;;;;;;;68.10;31.13;;;8.10;99.90;;;;;;5054904;28;20241;-78
2021/12/24 06:46:11;;;;;;;63.23;31.57;;;8.10;99.90;;;;;;5055757;28;20602;-78
2021/12/24 06:48:37;;;;;;;55.80;30.77;;;8.20;99.90;;;;;;5055144;28;20175;-78
2021/12/24 06:51:03;;;;;;;54.53;28.73;;;8.10;99.90;;;;;;5056673;28;20190;-78
2021/12/24 06:53:29;;;;;;;56.40;31.03;;;8.10;99.90;;;;;;5055261;28;20206;-78
2021/12/24 06:55:55;;;;;;;57.40;29.73;;;8.20;99.90;;;;;;5055565;28;20182;-78
2021/12/24 06:58:21;;;;;;;55.90;30.57;;;8.20;99.90;;;;;;5056627;28;20182;-78
2021/12/24 07:00:46;;;;;;;52.43;30.93;;;8.10;99.90;;;;;;5057407;28;20190;-78
2021/12/24 07:03:12;;;;;;;51.73;28.43;;;8.10;99.90;;;;;;5057165;28;20218;-78
2021/12/24 07:05:38;;;;;;;55.77;29.20;;;8.10;99.90;;;;;;5057433;28;20253;-78
2021/12/24 07:08:04;;;;;;;53.50;30.20;;;8.20;99.90;;;;;;5055902;28;20183;-79
2021/12/24 07:10:30;;;;;;;52.40;30.07;;;8.10;99.90;;;;;;5055601;28;20183;-78
2021/12/24 07:12:56;;;;;;;57.43;28.70;;;8.10;99.90;;;;;;5056901;28;20279;-78
2021/12/24 07:15:22;;;;;;;47.87;27.03;;;8.10;99.90;;;;;;5055503;28;20201;-78
2021/12/24 07:17:48;;;;;;;49.43;28.23;;;8.10;99.90;;;;;;5055774;28;20204;-78
2021/12/24 07:20:14;;;;;;;44.93;25.03;;;8.10;99.90;;;;;;5055460;28;20214;-78
2021/12/24 07:22:40;;;;;;;51.73;28.83;;;8.10;99.90;;;;;;5054409;28;20202;-78
2021/12/24 07:25:06;;;;;;;49.40;27.93;;;8.10;99.90;;;;;;5055052;28;20197;-78
2021/12/24 07:27:34;;;;;;;44.50;25.37;;;8.20;99.90;;;;;;5055098;28;20647;-78
2021/12/24 07:30:00;;;;;;;43.33;25.60;;;8.10;99.90;;;;;;5056249;28;20174;-78
2021/12/24 07:32:25;;;;;;;46.87;27.60;;;8.20;99.90;;;;;;5054725;28;20174;-78
2021/12/24 07:34:51;;;;;;;46.57;25.33;;;8.20;99.90;;;;;;5054439;28;20679;-78
2021/12/24 07:37:17;;;;;;;46.63;25.53;;;8.20;99.90;;;;;;5055670;28;20174;-78
2021/12/24 07:39:43;;;;;;;45.33;24.00;;;8.20;99.90;;;;;;5055928;28;20182;-78
2021/12/24 07:42:09;;;;;;;48.50;24.87;;;8.20;99.90;;;;;;5055252;28;20170;-78
2021/12/24 07:44:35;;;;;;;43.90;24.73;;;8.10;99.90;;;;;;5054262;28;20194;-78
2021/12/24 07:47:04;;;;;;;44.73;24.33;;;8.10;99.90;;;;;;5056069;28;20216;-78
2021/12/24 07:49:38;;;;;;;46.80;23.83;;;8.10;99.90;;;;;;5055512;28;20170;-78
2021/12/24 07:54:37;;;;;;;53.63;25.40;;;8.20;99.90;;;;;;5055902;28;20214;-78
2021/12/24 07:57:04;;;;;;;49.50;26.80;;;8.10;99.90;;;;;;5071280;28;20174;-78
2021/12/24 07:59:30;;;;;;;56.73;26.53;;;8.10;99.90;;;;;;5054090;28;20556;-78
2021/12/24 08:01:57;;;;;;;45.10;24.80;;;8.10;99.90;;;;;;5053914;28;20653;-78
2021/12/24 08:04:23;;;;;;;42.00;25.83;;;8.20;99.90;;;;;;5055536;28;20385;-78
2021/12/24 08:06:49;;;;;;;41.17;22.93;;;8.20;99.90;;;;;;5055099;28;20631;-78
2021/12/24 08:09:18;;;;;;;40.53;23.37;;;8.20;99.90;;;;;;5055464;28;20584;-78
2021/12/24 08:11:44;;;;;;;45.00;23.00;;;8.20;99.90;;;;;;5057635;28;20604;-78
2021/12/24 08:14:11;;;;;;;38.73;22.57;;;8.20;99.90;;;;;;5057129;28;20194;-78
2021/12/24 08:16:37;;;;;;;39.17;22.37;;;8.20;99.90;;;;;;5056613;28;20170;-78
2021/12/24 08:19:03;;;;;;;40.63;23.70;;;8.20;99.90;;;;;;5058177;28;20178;-78
2021/12/24 08:21:29;;;;;;;41.37;22.60;;;8.20;99.90;;;;;;5070661;28;20194;-78
2021/12/24 08:23:55;;;;;;;44.37;22.10;;;8.20;99.90;;;;;;5056678;28;20210;-78
2021/12/24 08:26:21;;;;;;;43.47;23.27;;;8.20;99.90;;;;;;5055798;28;20254;-78
2021/12/24 08:28:49;;;;;;;44.70;25.13;;;8.20;99.90;;;;;;5056459;28;20178;-79
2021/12/24 08:31:15;;;;;;;43.53;23.30;;;8.10;99.90;;;;;;5057143;28;20175;-78
2021/12/24 08:33:41;;;;;;;48.20;24.33;;;8.10;99.90;;;;;;5056869;28;20198;-79
2021/12/24 08:36:08;;;;;;;48.70;25.27;;;8.10;99.90;;;;;;5054094;28;20178;-79
2021/12/24 08:38:34;;;;;;;43.57;23.70;;;8.10;99.90;;;;;;5054576;28;20257;-80
2021/12/24 08:41:00;;;;;;;42.10;24.13;;;8.20;99.90;;;;;;5053293;28;20189;-79
2021/12/24 08:43:26;;;;;;;45.30;24.80;;;8.20;99.90;;;;;;5054082;28;20210;-79
2021/12/24 08:45:52;;;;;;;52.07;25.60;;;8.30;99.90;;;;;;5054702;28;20571;-79
2021/12/24 08:48:18;;;;;;;44.13;22.83;;;8.20;99.90;;;;;;5054919;28;20174;-78
2021/12/24 08:50:45;;;;;;;38.63;23.33;;;8.20;99.90;;;;;;5053504;28;20175;-78
2021/12/24 08:53:12;;;;;;;38.47;22.80;;;8.20;99.90;;;;;;5053588;28;20289;-79
2021/12/24 08:55:39;;;;;;;39.93;21.53;;;8.20;99.90;;;;;;5053149;28;20261;-78
2021/12/24 08:58:04;;;;;;;34.97;20.50;;;8.30;99.90;;;;;;5054577;28;20193;-78
2021/12/24 09:00:31;;;;;;;40.37;21.87;;;8.30;99.90;;;;;;5053056;28;20178;-78
2021/12/24 09:02:57;;;;;;;34.13;19.27;;;8.20;99.90;;;;;;5054147;28;20559;-78
2021/12/24 09:05:23;;;;;;;37.87;19.57;;;8.20;99.90;;;;;;5053508;28;20175;-79
2021/12/24 09:07:49;;;;;;;36.77;19.47;;;8.20;99.90;;;;;;5052785;28;20614;-77
2021/12/24 09:10:16;;;;;;;35.23;19.63;;;8.20;99.90;;;;;;5054993;28;20593;-78
2021/12/24 09:12:43;;;;;;;31.53;17.93;;;8.30;99.90;;;;;;5056087;28;20217;-78
2021/12/24 09:15:11;;;;;;;37.63;19.00;;;8.30;99.90;;;;;;5054128;28;20232;-78
2021/12/24 09:17:37;;;;;;;39.07;20.07;;;8.30;99.90;;;;;;5053293;28;20232;-78
2021/12/24 09:20:04;;;;;;;32.77;17.40;;;8.30;99.90;;;;;;5054315;28;20194;-78
2021/12/24 09:22:33;;;;;;;39.13;18.90;;;8.30;99.90;;;;;;5054422;28;20234;-78
2021/12/24 09:24:59;;;;;;;33.23;17.50;;;8.30;99.90;;;;;;5052906;28;20293;-78
2021/12/24 09:27:25;;;;;;;35.83;17.63;;;8.40;99.90;;;;;;5052606;28;20201;-78
2021/12/24 09:29:51;;;;;;;31.70;16.47;;;8.40;99.90;;;;;;5052935;28;20665;-78
2021/12/24 09:32:17;;;;;;;30.50;17.27;;;8.40;99.90;;;;;;5054241;28;20171;-78
2021/12/24 09:34:43;;;;;;;34.40;17.87;;;8.40;99.90;;;;;;5052674;28;20198;-78
2021/12/24 09:37:08;;;;;;;34.93;19.23;;;8.40;99.90;;;;;;5053078;28;20186;-78
2021/12/24 09:39:35;;;;;;;33.97;17.90;;;8.40;99.90;;;;;;5057087;28;20182;-79
2021/12/24 09:42:02;;;;;;;34.73;19.70;;;8.40;99.90;;;;;;5056962;28;20186;-78
2021/12/24 09:44:28;;;;;;;32.43;18.63;;;8.50;99.90;;;;;;5057656;28;20190;-78
2021/12/24 09:46:55;;;;;;;36.83;19.97;;;8.50;99.90;;;;;;5056443;28;20174;-78
2021/12/24 09:49:22;;;;;;;39.83;20.33;;;8.50;99.90;;;;;;5056597;28;20184;-78
2021/12/24 09:51:51;;;;;;;37.00;20.33;;;8.50;99.90;;;;;;5057257;28;20182;-82
2021/12/24 09:54:21;;;;;;;39.63;22.17;;;8.40;99.90;;;;;;5058568;28;20209;-78
2021/12/24 09:56:48;;;;;;;38.50;20.53;;;8.40;99.90;;;;;;5058526;28;20159;-81
2021/12/24 09:59:14;;;;;;;41.87;20.77;;;8.40;99.90;;;;;;5056912;28;20265;-80
2021/12/24 10:01:50;;;;;;;37.87;20.97;;;8.40;99.90;;;;;;5057759;28;20202;-80
2021/12/24 10:07:13;;;;;;;42.73;20.70;;;8.40;99.90;;;;;;5058405;28;20240;-79
2021/12/24 10:09:45;;;;;;;38.60;19.67;;;8.40;99.90;;;;;;5057390;28;20178;-78
2021/12/24 10:12:13;;;;;;;41.63;20.77;;;8.40;99.90;;;;;;5058008;28;20265;-78
2021/12/24 10:15:01;;;;;;;41.10;17.90;;;8.40;99.90;;;;;;5058701;28;20267;-78
2021/12/24 10:17:34;;;;;;;36.60;20.90;;;8.40;99.90;;;;;;5058236;28;20174;-78
2021/12/24 10:20:12;;;;;;;38.97;20.57;;;8.40;99.90;;;;;;5059112;28;20155;-78
2021/12/24 10:22:46;;;;;;;34.33;19.20;;;8.40;99.90;;;;;;5056780;28;20198;-78
2021/12/24 10:25:13;;;;;;;37.37;19.03;;;8.40;99.90;;;;;;5072961;28;20197;-81
2021/12/24 10:27:41;;;;;;;37.43;19.07;;;8.40;99.90;;;;;;5056350;28;20647;-81
2021/12/24 10:30:34;;;;;;;35.07;19.53;;;8.40;99.90;;;;;;5055791;28;20228;-84
2021/12/24 10:33:10;;;;;;;40.00;17.87;;;8.40;99.90;;;;;;5053034;28;20244;-83
2021/12/24 10:35:36;;;;;;;31.93;16.80;;;8.40;99.90;;;;;;5055942;28;20217;-80
2021/12/24 10:38:10;;;;;;;32.73;17.53;;;8.40;99.90;;;;;;5055937;28;20295;-78
2021/12/24 10:40:37;;;;;;;30.03;17.80;;;8.50;99.90;;;;;;5056688;28;20163;-78
2021/12/24 10:43:03;;;;;;;28.50;16.60;;;8.50;99.90;;;;;;5056668;28;20210;-78
2021/12/24 10:45:29;;;;;;;28.27;16.27;;;8.50;99.90;;;;;;5055417;28;20580;-78
2021/12/24 10:47:54;;;;;;;32.60;17.00;;;8.50;99.90;;;;;;5056282;28;20222;-78
2021/12/24 10:53:18;;;;;;;31.13;16.60;;;8.60;99.90;;;;;;5056485;28;20187;-78
2021/12/24 10:55:46;;;;;;;31.80;17.67;;;8.70;99.90;;;;;;5056856;28;20324;-78
2021/12/24 10:58:18;;;;;;;37.53;17.57;;;8.70;99.90;;;;;;5055643;28;20556;-78
2021/12/24 11:00:51;;;;;;;38.27;17.23;;;8.70;99.90;;;;;;5056043;28;20178;-78
2021/12/24 11:03:26;;;;;;;29.50;16.23;;;8.60;99.90;;;;;;5055122;28;20756;-78
2021/12/24 11:06:02;;;;;;;38.17;17.23;;;8.60;99.90;;;;;;5054600;28;20242;-77
2021/12/24 11:08:29;;;;;;;32.83;16.33;;;8.60;99.90;;;;;;5055867;28;20207;-79
2021/12/24 11:11:01;;;;;;;28.87;15.40;;;8.60;99.90;;;;;;5054600;28;20202;-78
2021/12/24 11:13:40;;;;;;;27.30;15.63;;;8.50;99.90;;;;;;5054820;28;20198;-78
2021/12/24 11:16:15;;;;;;;32.37;16.57;;;8.60;99.90;;;;;;5054541;28;20193;-79
2021/12/24 11:18:45;;;;;;;30.10;16.30;;;8.60;99.90;;;;;;5055481;28;20260;-79
2021/12/24 11:21:20;;;;;;;27.50;17.37;;;8.50;99.90;;;;;;5054757;28;20178;-80
2021/12/24 11:24:06;;;;;;;33.07;17.33;;;8.50;99.90;;;;;;5071963;28;20305;-79
2021/12/24 11:26:50;;;;;;;34.10;18.17;;;8.50;99.90;;;;;;5037956;28;20728;-80
2021/12/24 11:29:15;;;;;;;30.83;17.23;;;8.40;99.90;;;;;;5055283;28;20647;-78
2021/12/24 11:31:41;;;;;;;39.43;17.83;;;8.40;99.90;;;;;;5054316;28;20190;-78
2021/12/24 11:34:08;;;;;;;37.40;17.43;;;8.40;99.90;;;;;;5054120;28;20203;-78
2021/12/24 11:36:36;;;;;;;32.17;19.00;;;8.40;99.90;;;;;;5054455;28;20179;-77
2021/12/24 11:39:07;;;;;;;37.37;17.90;;;8.40;99.90;;;;;;5056731;28;20217;-78
2021/12/24 11:41:33;;;;;;;30.00;17.47;;;8.40;99.90;;;;;;5055935;28;20185;-78
2021/12/24 11:44:06;;;;;;;34.90;19.03;;;8.40;99.90;;;;;;5058188;28;20206;-78
2021/12/24 11:46:34;;;;;;;31.17;16.97;;;8.40;99.90;;;;;;5056650;28;20189;-78
2021/12/24 11:49:00;;;;;;;33.73;17.17;;;8.40;99.90;;;;;;5054989;28;20174;-78
2021/12/24 11:51:29;;;;;;;32.47;16.03;;;8.40;99.90;;;;;;5054777;28;20178;-78
2021/12/24 11:54:02;;;;;;;30.70;16.30;;;8.40;99.90;;;;;;5054572;28;20202;-78
2021/12/24 11:56:28;;;;;;;35.83;17.87;;;8.40;99.90;;;;;;5056051;28;20181;-78
2021/12/24 11:58:56;;;;;;;31.50;16.03;;;8.40;99.90;;;;;;5055085;28;20274;-78
2021/12/24 12:01:27;;;;;;;37.57;17.30;;;8.40;99.90;;;;;;5053895;28;20197;-78
2021/12/24 12:03:59;;;;;;;30.10;16.57;;;8.30;99.90;;;;;;5055548;28;20213;-78
2021/12/24 12:06:25;;;;;;;27.23;16.53;;;8.30;99.90;;;;;;5054046;28;20174;-78
2021/12/24 12:08:53;;;;;;;30.97;16.23;;;8.30;99.90;;;;;;5054405;28;20228;-78
2021/12/24 12:11:25;;;;;;;28.60;15.87;;;8.30;99.90;;;;;;5053779;28;20175;-78
2021/12/24 12:13:55;;;;;;;32.70;15.53;;;8.30;99.90;;;;;;5055177;28;20190;-78
2021/12/24 12:16:26;;;;;;;30.93;16.07;;;8.30;99.90;;;;;;5054865;28;20549;-78
2021/12/24 12:19:23;;;;;;;31.97;14.87;;;8.30;99.90;;;;;;5053246;28;20273;-78
2021/12/24 12:22:44;;;;;;;26.43;14.80;;;8.30;99.90;;;;;;5053531;28;20185;-77
2021/12/24 12:25:14;;;;;;;27.73;14.17;;;8.30;99.90;;;;;;5053458;28;20681;-78
2021/12/24 12:27:39;;;;;;;22.80;14.20;;;8.30;99.90;;;;;;5053285;28;20174;-77
2021/12/24 12:30:37;;;;;;;26.73;15.13;;;8.30;99.90;;;;;;5054570;28;20178;-77
2021/12/24 12:33:22;;;;;;;30.20;13.40;;;8.30;99.90;;;;;;5053320;28;20226;-78
2021/12/24 12:35:58;;;;;;;23.67;14.10;;;8.30;99.90;;;;;;5053253;28;20634;-77
2021/12/24 12:38:26;;;;;;;26.40;14.17;;;8.40;99.90;;;;;;5069892;28;20626;-78
2021/12/24 12:40:53;;;;;;;24.57;13.40;;;8.40;99.90;;;;;;5054619;28;20171;-78
2021/12/24 12:43:20;;;;;;;29.43;15.23;;;8.40;99.90;;;;;;5054116;28;20289;-77
2021/12/24 12:45:47;;;;;;;26.53;13.97;;;8.30;99.90;;;;;;5053076;28;20187;-77
2021/12/24 12:48:24;;;;;;;23.10;14.23;;;8.30;99.90;;;;;;5053015;28;20225;-77
2021/12/24 12:50:54;;;;;;;26.70;13.70;;;8.40;99.90;;;;;;5054289;28;20159;-78
2021/12/24 12:53:34;;;;;;;23.40;15.00;;;8.40;99.90;;;;;;5053423;28;20202;-77
2021/12/24 12:56:17;;;;;;;26.77;14.50;;;8.40;99.90;;;;;;5054712;28;20204;-78
2021/12/24 12:58:45;;;;;;;25.07;14.70;;;8.40;99.90;;;;;;5053057;28;20193;-77
2021/12/24 13:01:21;;;;;;;25.87;14.17;;;8.40;99.90;;;;;;5053021;28;20179;-77
2021/12/24 13:03:56;;;;;;;28.77;15.27;;;8.40;99.90;;;;;;5052818;28;20630;-77
2021/12/24 13:06:36;;;;;;;25.60;14.43;;;8.40;99.90;;;;;;5053205;28;20216;-78
2021/12/24 13:09:04;;;;;;;26.73;15.60;;;8.30;99.90;;;;;;5052657;28;20601;-78
2021/12/24 13:11:35;;;;;;;23.10;14.13;;;8.30;99.90;;;;;;5053615;28;20178;-78
2021/12/24 13:14:02;;;;;;;22.70;14.53;;;8.30;99.90;;;;;;5057076;28;20198;-78
2021/12/24 13:16:34;;;;;;;27.60;15.67;;;8.30;99.90;;;;;;5059471;28;20178;-82
2021/12/24 13:24:47;;;;;;;27.60;16.97;;;8.30;99.90;;;;;;5059187;28;20732;-78
2021/12/24 13:27:14;;;;;;;28.23;16.70;;;8.40;99.90;;;;;;5061552;28;20221;-78
2021/12/24 13:29:40;;;;;;;27.87;16.00;;;8.30;99.90;;;;;;5062357;28;20213;-79
2021/12/24 13:32:07;;;;;;;27.47;16.73;;;8.30;99.90;;;;;;5058645;28;20178;-78
2021/12/24 13:34:33;;;;;;;32.20;16.07;;;8.30;99.90;;;;;;5059392;28;20202;-79
2021/12/24 13:37:13;;;;;;;29.93;17.13;;;8.30;99.90;;;;;;5058900;28;20200;-78
2021/12/24 13:39:52;;;;;;;27.67;16.30;;;8.30;99.90;;;;;;5076124;28;20182;-78
2021/12/24 13:42:21;;;;;;;32.63;16.93;;;8.30;99.90;;;;;;5058502;28;20175;-78
2021/12/24 13:44:51;;;;;;;29.60;17.93;;;8.30;99.90;;;;;;5062387;28;20292;-78
2021/12/24 13:47:28;;;;;;;32.53;17.77;;;8.30;99.90;;;;;;5062040;28;20158;-78
2021/12/24 13:55:30;;;;;;;32.70;17.77;;;8.30;99.90;;;;;;5060360;28;20197;-81
2021/12/24 13:58:03;;;;;;;29.60;17.83;;;8.30;99.90;;;;;;5059003;28;20235;-82
2021/12/24 14:00:31;;;;;;;32.40;18.63;;;8.30;99.90;;;;;;5059125;28;20182;-81
2021/12/24 14:03:07;;;;;;;29.07;17.63;;;8.30;99.90;;;;;;5059293;28;20202;-85
2021/12/24 14:05:54;;;;;;;33.87;19.83;;;8.30;99.90;;;;;;5058772;28;20587;-83
2021/12/24 14:08:39;;;;;;;35.47;19.60;;;8.40;99.90;;;;;;5058633;28;20170;-83
2021/12/24 14:11:30;;;;;;;35.93;19.63;;;8.50;99.90;;;;;;5058759;28;20257;-85
2021/12/24 14:13:59;;;;;;;38.90;20.20;;;8.50;99.90;;;;;;5057776;28;20271;-83
2021/12/24 14:17:03;;;;;;;32.10;18.43;;;8.50;99.90;;;;;;5057514;28;20272;-85
2021/12/24 14:19:30;;;;;;;33.37;19.57;;;8.50;99.90;;;;;;5056803;28;20248;-79
2021/12/24 14:22:11;;;;;;;29.17;18.63;;;8.50;99.90;;;;;;5057679;28;20184;-83
2021/12/24 14:24:48;;;;;;;42.57;21.70;;;8.50;99.90;;;;;;5058204;28;20224;-84
2021/12/24 14:27:18;;;;;;;33.17;20.30;;;8.50;99.90;;;;;;5058546;28;20178;-84
2021/12/24 14:29:45;;;;;;;36.17;18.77;;;8.50;99.90;;;;;;5057086;28;20178;-83
2021/12/24 14:32:29;;;;;;;34.10;19.53;;;8.50;99.90;;;;;;5058254;28;20162;-84
2021/12/24 14:34:56;;;;;;;35.93;19.90;;;8.50;99.90;;;;;;5055680;28;20252;-83
2021/12/24 14:37:25;;;;;;;32.87;19.17;;;8.50;99.90;;;;;;5056964;28;20167;-81
2021/12/24 14:39:58;;;;;;;36.10;18.03;;;8.50;99.90;;;;;;5057005;28;20167;-82
2021/12/24 14:42:39;;;;;;;32.73;18.77;;;8.50;99.90;;;;;;5056439;28;20698;-82
2021/12/24 14:45:25;;;;;;;31.70;17.47;;;8.50;99.90;;;;;;5058027;28;20198;-81